createdAt,value
2018-06-02T00:00:13.968Z,61.68
2018-06-02T00:02:42.316Z,61.74
2018-06-02T00:05:10.697Z,62.25
2018-06-02T00:07:39.283Z,62.73
2018-06-02T00:10:07.602Z,61.80
2018-06-02T00:12:35.949Z,62.30
2018-06-02T00:15:04.515Z,61.75
2018-06-02T00:17:33.024Z,61.45
2018-06-02T00:20:01.575Z,62.65
2018-06-02T00:22:30.980Z,63.12
2018-06-02T00:24:59.295Z,63.25
2018-06-02T00:27:27.670Z,63.58
2018-06-02T00:29:56.032Z,63.83
2018-06-02T00:32:24.367Z,64.35
2018-06-02T00:34:52.795Z,64.40
2018-06-02T00:37:21.282Z,64.56
2018-06-02T00:39:49.590Z,64.20
2018-06-02T00:42:18.111Z,63.92
2018-06-02T00:44:48.108Z,63.84
2018-06-02T00:47:16.528Z,64.14
2018-06-02T00:49:44.895Z,64.44
2018-06-02T00:52:13.968Z,65.23
2018-06-02T00:54:59.848Z,65.07
2018-06-02T00:57:28.182Z,65.24
2018-06-02T00:59:56.533Z,65.34
2018-06-02T01:02:25.408Z,66.01
2018-06-02T01:04:54.521Z,66.88
2018-06-02T01:07:22.890Z,67.79
2018-06-02T01:09:52.019Z,67.77
2018-06-02T01:12:20.330Z,67.50
2018-06-02T01:14:48.636Z,66.52
2018-06-02T01:17:16.989Z,67.30
2018-06-02T01:19:45.336Z,67.24
2018-06-02T01:22:13.673Z,66.54
2018-06-02T01:24:42.119Z,68.24
2018-06-02T01:27:10.436Z,68.75
2018-06-02T01:29:38.797Z,68.72
2018-06-02T01:32:07.185Z,67.73
2018-06-02T01:34:35.493Z,67.63
2018-06-02T01:37:03.808Z,67.41
2018-06-02T01:39:32.162Z,67.38
2018-06-02T01:42:00.496Z,67.66
2018-06-02T01:44:28.843Z,68.03
2018-06-02T01:46:57.657Z,68.22
2018-06-02T01:49:25.984Z,68.20
2018-06-02T01:51:54.292Z,68.84
2018-06-02T01:54:22.662Z,68.65
2018-06-02T01:56:51.005Z,68.37
2018-06-02T01:59:20.103Z,69.25
2018-06-02T02:01:49.204Z,69.37
2018-06-02T02:04:17.551Z,69.02
2018-06-02T02:06:45.860Z,69.37
2018-06-02T02:09:15.445Z,69.61
2018-06-02T02:11:43.803Z,71.54
2018-06-02T02:14:12.147Z,71.99
2018-06-02T02:16:40.499Z,71.73
2018-06-02T02:19:08.835Z,73.19
2018-06-02T02:21:37.175Z,72.94
2018-06-02T02:24:05.515Z,72.29
2018-06-02T02:26:34.605Z,72.19
2018-06-02T02:29:02.971Z,71.79
2018-06-02T02:31:31.787Z,72.94
2018-06-02T02:34:00.903Z,73.24
2018-06-02T02:36:29.218Z,73.86
2018-06-02T02:38:57.586Z,73.58
2018-06-02T02:41:25.891Z,73.47
2018-06-02T02:43:54.286Z,72.72
2018-06-02T02:46:22.670Z,72.01
2018-06-02T02:48:51.757Z,72.20
2018-06-02T02:51:20.084Z,72.21
2018-06-02T02:53:49.151Z,71.88
2018-06-02T02:56:17.485Z,73.14
2018-06-02T02:58:46.202Z,73.12
2018-06-02T03:01:15.339Z,72.99
2018-06-02T03:03:43.672Z,72.90
2018-06-02T03:06:11.975Z,74.12
2018-06-02T03:08:40.315Z,74.25
2018-06-02T03:11:08.639Z,73.98
2018-06-02T03:13:36.977Z,73.95
2018-06-02T03:16:05.882Z,74.98
2018-06-02T03:18:34.211Z,74.86
2018-06-02T03:21:02.559Z,73.92
2018-06-02T03:23:30.936Z,74.92
2018-06-02T03:25:59.291Z,74.36
2018-06-02T03:28:27.626Z,74.31
2018-06-02T03:30:55.980Z,74.34
2018-06-02T03:33:24.322Z,74.08
2018-06-02T03:35:52.665Z,73.84
2018-06-02T03:38:21.281Z,74.13
2018-06-02T03:40:49.634Z,73.95
2018-06-02T03:43:17.952Z,74.00
2018-06-02T03:45:46.330Z,73.41
2018-06-02T03:48:15.431Z,72.70
2018-06-02T03:50:44.524Z,72.32
2018-06-02T03:53:12.945Z,72.62
2018-06-02T03:55:41.277Z,73.27
2018-06-02T03:58:09.632Z,72.90
2018-06-02T04:00:38.535Z,72.42
2018-06-02T04:03:06.896Z,72.54
2018-06-02T04:05:35.988Z,72.96
2018-06-02T04:08:04.337Z,73.21
2018-06-02T04:10:32.696Z,73.08
2018-06-02T04:13:01.027Z,72.58
2018-06-02T04:15:30.155Z,73.03
2018-06-02T04:17:58.503Z,71.93
2018-06-02T04:20:26.909Z,72.23
2018-06-02T04:22:55.643Z,73.40
2018-06-02T04:25:24.023Z,73.55
2018-06-02T04:27:52.351Z,73.04
2018-06-02T04:30:20.677Z,73.49
2018-06-02T04:32:49.004Z,73.72
2018-06-02T04:35:17.330Z,73.10
2018-06-02T04:37:46.442Z,72.97
2018-06-02T04:40:14.786Z,74.76
2018-06-02T04:42:43.125Z,73.43
2018-06-02T04:45:11.579Z,72.62
2018-06-02T04:47:39.916Z,72.73
2018-06-02T04:50:08.237Z,73.47
2018-06-02T04:52:36.585Z,73.50
2018-06-02T04:55:05.711Z,72.65
2018-06-02T04:57:34.046Z,72.34
2018-06-02T05:00:03.180Z,72.76
2018-06-02T05:02:31.896Z,72.04
2018-06-02T05:05:00.999Z,72.25
2018-06-02T05:07:30.630Z,72.68
2018-06-02T05:09:59.007Z,72.12
2018-06-02T05:12:27.332Z,72.08
2018-06-02T05:14:55.704Z,72.75
2018-06-02T05:17:24.032Z,72.16
2018-06-02T05:19:52.352Z,72.55
2018-06-02T05:22:20.756Z,72.39
2018-06-02T05:24:49.091Z,73.64
2018-06-02T05:27:18.182Z,74.02
2018-06-02T05:29:47.411Z,75.11
2018-06-02T05:32:15.768Z,73.83
2018-06-02T05:34:44.880Z,73.77
2018-06-02T05:37:13.287Z,73.99
2018-06-02T05:39:41.613Z,74.05
2018-06-02T05:42:10.748Z,74.36
2018-06-02T05:44:39.147Z,72.95
2018-06-02T05:47:07.535Z,71.93
2018-06-02T05:49:35.895Z,72.03
2018-06-02T05:52:04.389Z,72.35
2018-06-02T05:54:32.780Z,71.89
2018-06-02T05:57:01.101Z,71.62
2018-06-02T05:59:30.244Z,71.61
2018-06-02T06:01:58.586Z,71.43
2018-06-02T06:04:26.924Z,71.43
2018-06-02T06:06:55.268Z,72.64
2018-06-02T06:09:23.592Z,72.22
2018-06-02T06:11:51.913Z,72.59
2018-06-02T06:14:20.360Z,71.76
2018-06-02T06:16:49.486Z,71.74
2018-06-02T06:19:18.594Z,71.63
2018-06-02T06:21:46.958Z,71.22
2018-06-02T06:24:15.311Z,71.30
2018-06-02T06:26:44.407Z,71.28
2018-06-02T06:29:13.526Z,73.07
2018-06-02T06:31:42.636Z,73.16
2018-06-02T06:34:11.032Z,72.93
2018-06-02T06:36:39.555Z,73.39
2018-06-02T06:39:07.902Z,72.72
2018-06-02T06:41:36.211Z,71.92
2018-06-02T06:44:04.580Z,71.73
2018-06-02T06:46:33.756Z,72.36
2018-06-02T06:49:02.068Z,72.00
2018-06-02T06:51:30.450Z,72.33
2018-06-02T06:53:59.548Z,71.87
2018-06-02T06:56:28.672Z,71.80
2018-06-02T06:58:57.430Z,72.33
2018-06-02T07:01:25.794Z,72.67
2018-06-02T07:03:54.154Z,71.25
2018-06-02T07:06:22.525Z,70.86
2018-06-02T07:08:50.881Z,70.84
2018-06-02T07:11:19.171Z,70.67
2018-06-02T07:13:47.569Z,71.63
2018-06-02T07:16:15.949Z,70.24
2018-06-02T07:18:44.308Z,69.10
2018-06-02T07:21:12.951Z,69.17
2018-06-02T07:23:41.297Z,68.17
2018-06-02T07:26:09.659Z,67.53
2018-06-02T07:28:38.067Z,67.17
2018-06-02T07:31:06.382Z,66.72
2018-06-02T07:33:35.486Z,65.94
2018-06-02T07:36:03.861Z,66.30
2018-06-02T07:38:32.212Z,66.32
2018-06-02T07:41:00.520Z,67.24
2018-06-02T07:43:29.311Z,67.28
2018-06-02T07:45:57.643Z,67.38
2018-06-02T07:48:25.987Z,67.20
2018-06-02T07:50:54.365Z,67.25
2018-06-02T07:53:22.723Z,66.95
2018-06-02T07:55:51.127Z,66.62
2018-06-02T07:58:19.505Z,65.86
2018-06-02T08:00:47.836Z,65.78
2018-06-02T08:03:16.196Z,65.95
2018-06-02T08:05:44.830Z,66.60
2018-06-02T08:08:13.159Z,68.01
2018-06-02T08:10:41.510Z,68.82
2018-06-02T08:13:10.608Z,67.20
2018-06-02T08:15:38.968Z,66.48
2018-06-02T08:18:07.311Z,66.65
2018-06-02T08:20:35.747Z,65.76
2018-06-02T08:23:04.101Z,65.26
2018-06-02T08:25:32.431Z,63.85
2018-06-02T08:28:00.981Z,62.02
2018-06-02T08:30:29.292Z,62.01
2018-06-02T08:32:57.654Z,62.56
2018-06-02T08:35:26.021Z,60.21
2018-06-02T08:37:54.356Z,60.23
2018-06-02T08:40:23.423Z,62.06
2018-06-02T08:42:51.764Z,61.74
2018-06-02T08:45:20.093Z,62.12
2018-06-02T08:47:48.424Z,62.55
2018-06-02T08:50:17.077Z,61.82
2018-06-02T08:52:45.405Z,64.33
2018-06-02T08:55:13.755Z,64.50
2018-06-02T08:57:42.141Z,62.69
2018-06-02T09:00:10.480Z,62.64
2018-06-02T09:02:39.599Z,63.84
2018-06-02T09:05:07.990Z,62.73
2018-06-02T09:07:36.339Z,62.79
2018-06-02T09:10:05.465Z,63.29
2018-06-02T09:12:34.218Z,63.13
2018-06-02T09:15:02.627Z,63.51
2018-06-02T09:17:30.996Z,63.96
2018-06-02T09:19:59.359Z,65.03
2018-06-02T09:22:28.492Z,64.24
2018-06-02T09:24:56.827Z,64.40
2018-06-02T09:27:25.941Z,64.64
2018-06-02T09:29:55.025Z,64.48
2018-06-02T09:32:24.118Z,66.18
2018-06-02T09:34:53.008Z,66.69
2018-06-02T09:37:21.367Z,66.40
2018-06-02T09:39:49.792Z,66.03
2018-06-02T09:42:18.187Z,65.69
2018-06-02T09:44:46.577Z,65.32
2018-06-02T09:47:14.888Z,64.75
2018-06-02T09:49:43.274Z,65.33
2018-06-02T09:52:11.604Z,65.23
2018-06-02T09:54:39.953Z,64.46
2018-06-02T09:57:09.192Z,63.17
2018-06-02T09:59:37.526Z,62.02
2018-06-02T10:02:06.633Z,60.65
2018-06-02T10:04:35.828Z,59.64
2018-06-02T10:07:04.137Z,58.98
2018-06-02T10:09:32.476Z,57.92
2018-06-02T10:12:01.628Z,57.58
2018-06-02T10:14:30.000Z,57.08
2018-06-02T10:16:58.339Z,56.33
2018-06-02T10:19:27.837Z,55.87
2018-06-02T10:21:56.927Z,56.44
2018-06-02T10:24:25.260Z,56.30
2018-06-02T10:26:53.612Z,56.66
2018-06-02T10:29:22.010Z,58.55
2018-06-02T10:31:50.414Z,60.00
2018-06-02T10:34:18.753Z,60.84
2018-06-02T10:36:47.104Z,62.16
2018-06-02T10:39:15.491Z,62.08
2018-06-02T10:41:44.827Z,62.98
2018-06-02T10:44:13.162Z,63.64
2018-06-02T10:46:41.473Z,63.64
2018-06-02T10:49:09.831Z,63.42
2018-06-02T10:51:38.960Z,63.80
2018-06-02T10:54:07.339Z,63.52
2018-06-02T10:56:35.715Z,63.74
2018-06-02T10:59:04.036Z,65.05
2018-06-02T11:01:32.357Z,66.11
2018-06-02T11:04:01.031Z,64.86
2018-06-02T11:06:29.351Z,64.57
2018-06-02T11:08:57.688Z,64.68
2018-06-02T11:11:26.843Z,64.04
2018-06-02T11:13:55.176Z,64.37
2018-06-02T11:16:23.510Z,63.59
2018-06-02T11:18:51.880Z,62.53
2018-06-02T11:21:20.265Z,62.72
2018-06-02T11:23:48.748Z,62.48
2018-06-02T11:26:17.178Z,62.44
2018-06-02T11:28:45.519Z,62.89
2018-06-02T11:31:14.639Z,62.97
2018-06-02T11:33:43.804Z,62.58
2018-06-02T11:36:12.213Z,61.86
2018-06-02T11:38:41.314Z,61.91
2018-06-02T11:41:09.713Z,62.20
2018-06-02T11:43:38.059Z,63.11
2018-06-02T11:46:07.134Z,62.83
2018-06-02T11:48:35.769Z,63.40
2018-06-02T11:51:04.117Z,63.35
2018-06-02T11:53:33.220Z,63.00
2018-06-02T11:56:02.367Z,62.87
2018-06-02T11:58:30.707Z,62.23
2018-06-02T12:00:59.045Z,61.46
2018-06-02T12:03:27.397Z,61.10
2018-06-02T12:05:55.747Z,60.02
2018-06-02T12:08:24.128Z,59.02
2018-06-02T12:10:52.853Z,58.55
2018-06-02T12:13:21.223Z,57.88
2018-06-02T12:15:49.550Z,57.50
2018-06-02T12:18:18.695Z,57.83
2018-06-02T12:20:47.226Z,57.20
2018-06-02T12:23:15.687Z,57.06
2018-06-02T12:25:44.056Z,56.55
2018-06-02T12:28:12.443Z,57.06
2018-06-02T12:30:40.820Z,56.59
2018-06-02T12:33:09.301Z,56.25
2018-06-02T12:35:37.655Z,55.57
2018-06-02T12:38:06.018Z,56.40
2018-06-02T12:40:34.492Z,56.58
2018-06-02T12:43:02.904Z,56.57
2018-06-02T12:45:31.230Z,57.24
2018-06-02T12:47:59.576Z,57.73
2018-06-02T12:50:27.918Z,57.61
2018-06-02T12:52:56.233Z,57.05
2018-06-02T12:55:24.916Z,57.10
2018-06-02T12:57:53.301Z,58.02
2018-06-02T13:00:21.766Z,59.14
2018-06-02T13:02:50.112Z,59.77
2018-06-02T13:05:18.480Z,59.36
2018-06-02T13:07:46.795Z,59.44
2018-06-02T13:10:15.152Z,59.74
2018-06-02T13:12:43.512Z,59.58
2018-06-02T13:15:17.950Z,58.98
2018-06-02T13:17:46.300Z,59.15
2018-06-02T13:20:15.383Z,58.68
2018-06-02T13:22:43.741Z,58.43
2018-06-02T13:25:12.108Z,57.49
2018-06-02T13:27:40.426Z,56.89
2018-06-02T13:30:08.801Z,56.96
2018-06-02T13:32:37.151Z,57.17
2018-06-02T13:35:05.500Z,57.71
2018-06-02T13:37:34.126Z,57.75
2018-06-02T13:40:03.265Z,56.80
2018-06-02T13:42:32.355Z,55.92
2018-06-02T13:45:01.503Z,55.39
2018-06-02T13:47:29.850Z,55.41
2018-06-02T13:49:58.180Z,55.42
2018-06-02T13:52:26.559Z,55.52
2018-06-02T13:54:54.889Z,55.53
2018-06-02T13:57:23.223Z,55.21
2018-06-02T13:59:51.740Z,55.96
2018-06-02T14:02:20.838Z,56.15
2018-06-02T14:04:49.435Z,56.41
2018-06-02T14:07:17.777Z,56.49
2018-06-02T14:09:46.114Z,56.90
2018-06-02T14:12:14.457Z,57.15
2018-06-02T14:14:42.816Z,57.88
2018-06-02T14:17:11.955Z,58.21
2018-06-02T14:19:40.287Z,59.31
2018-06-02T14:22:08.847Z,59.04
2018-06-02T14:24:37.177Z,58.66
2018-06-02T14:27:06.285Z,59.77
2018-06-02T14:29:34.654Z,60.07
2018-06-02T14:32:03.027Z,60.73
2018-06-02T14:34:32.112Z,60.68
2018-06-02T14:37:01.233Z,61.11
2018-06-02T14:39:29.563Z,61.92
2018-06-02T14:41:57.883Z,62.04
2018-06-02T14:44:26.304Z,62.06
2018-06-02T14:46:54.664Z,61.82
2018-06-02T14:49:23.081Z,61.51
2018-06-02T14:51:51.388Z,61.00
2018-06-02T14:54:20.594Z,60.11
2018-06-02T14:56:48.925Z,59.76
2018-06-02T14:59:17.287Z,60.44
2018-06-02T15:01:45.613Z,60.16
2018-06-02T15:04:14.718Z,60.40
2018-06-02T15:06:44.076Z,60.35
2018-06-02T15:09:12.423Z,60.90
2018-06-02T15:11:40.779Z,60.82
2018-06-02T15:14:09.908Z,61.10
2018-06-02T15:16:38.225Z,60.97
2018-06-02T15:19:06.561Z,61.07
2018-06-02T15:21:34.922Z,61.44
2018-06-02T15:24:04.026Z,61.51
2018-06-02T15:26:32.371Z,61.92
2018-06-02T15:29:01.040Z,61.38
2018-06-02T15:31:29.394Z,61.01
2018-06-02T15:33:57.744Z,60.77
2018-06-02T15:36:26.118Z,60.45
2018-06-02T15:38:54.459Z,60.27
2018-06-02T15:41:22.807Z,61.03
2018-06-02T15:43:51.163Z,60.81
2018-06-02T15:46:19.491Z,61.14
2018-06-02T15:48:47.804Z,61.08
2018-06-02T15:51:17.020Z,61.10
2018-06-02T15:53:45.348Z,61.37
2018-06-02T15:56:13.657Z,60.78
2018-06-02T15:58:42.809Z,60.48
2018-06-02T16:01:11.165Z,60.88
2018-06-02T16:03:39.511Z,60.60
2018-06-02T16:06:08.661Z,60.19
2018-06-02T16:08:37.015Z,60.99
2018-06-02T16:11:05.436Z,61.77
2018-06-02T16:13:34.173Z,61.74
2018-06-02T16:16:02.497Z,61.70
2018-06-02T16:18:30.846Z,61.42
2018-06-02T16:20:59.231Z,62.08
2018-06-02T16:23:27.573Z,61.13
2018-06-02T16:25:56.696Z,60.60
2018-06-02T16:28:25.081Z,59.92
2018-06-02T16:30:53.429Z,60.16
2018-06-02T16:33:22.506Z,60.67
2018-06-02T16:35:51.812Z,60.79
2018-06-02T16:38:20.927Z,60.56
2018-06-02T16:40:50.048Z,61.01
2018-06-02T16:43:18.404Z,61.46
2018-06-02T16:45:46.754Z,62.35
2018-06-02T16:48:15.159Z,62.44
2018-06-02T16:50:43.515Z,62.86
2018-06-02T16:53:12.643Z,62.51
2018-06-02T16:55:40.949Z,62.62
2018-06-02T16:58:09.753Z,62.27
2018-06-02T17:00:38.146Z,62.22
2018-06-02T17:03:06.480Z,61.93
2018-06-02T17:05:34.840Z,62.25
2018-06-02T17:08:03.180Z,62.90
2018-06-02T17:10:31.535Z,62.84
2018-06-02T17:12:59.945Z,63.42
2018-06-02T17:15:28.319Z,64.18
2018-06-02T17:17:56.806Z,63.92
2018-06-02T17:20:25.276Z,63.53
2018-06-02T17:22:53.667Z,63.61
2018-06-02T17:25:22.080Z,63.98
2018-06-02T17:27:50.491Z,64.18
2018-06-02T17:30:18.917Z,64.39
2018-06-02T17:32:47.300Z,64.42
2018-06-02T17:35:16.454Z,64.50
2018-06-02T17:37:44.951Z,65.06
2018-06-02T17:40:13.329Z,64.34
2018-06-02T17:42:41.844Z,64.16
2018-06-02T17:45:11.112Z,65.17
2018-06-02T17:47:39.545Z,65.08
2018-06-02T17:50:07.994Z,64.90
2018-06-02T17:52:36.313Z,65.17
2018-06-02T17:55:04.748Z,65.21
2018-06-02T17:57:33.220Z,64.95
2018-06-02T18:00:01.723Z,64.01
2018-06-02T18:02:30.969Z,64.57
2018-06-02T18:04:59.567Z,64.29
2018-06-02T18:07:27.973Z,64.75
2018-06-02T18:09:56.467Z,64.23
2018-06-02T18:12:25.764Z,64.24
2018-06-02T18:14:54.135Z,64.20
2018-06-02T18:17:22.487Z,64.08
2018-06-02T18:19:50.837Z,64.18
2018-06-02T18:22:19.353Z,64.84
2018-06-02T18:24:47.779Z,64.42
2018-06-02T18:27:16.742Z,65.03
2018-06-02T18:29:45.134Z,65.10
2018-06-02T18:32:13.612Z,64.99
2018-06-02T18:34:41.955Z,65.04
2018-06-02T18:37:10.492Z,65.74
2018-06-02T18:39:39.671Z,65.41
2018-06-02T18:42:08.080Z,64.53
2018-06-02T18:44:37.260Z,65.00
2018-06-02T18:47:05.753Z,65.13
2018-06-02T18:49:35.017Z,64.96
2018-06-02T18:52:03.436Z,64.74
2018-06-02T18:54:31.806Z,64.14
2018-06-02T18:57:01.063Z,64.53
2018-06-02T18:59:29.478Z,64.48
2018-06-02T19:01:57.878Z,64.23
2018-06-02T19:04:27.016Z,64.21
2018-06-02T19:06:55.377Z,64.97
2018-06-02T19:09:23.723Z,64.70
2018-06-02T19:11:53.331Z,64.44
2018-06-02T19:14:22.451Z,65.50
2018-06-02T19:16:50.802Z,65.53
2018-06-02T19:19:19.207Z,65.60
2018-06-02T19:21:47.540Z,65.49
2018-06-02T19:24:15.954Z,66.49
2018-06-02T19:26:45.065Z,66.23
2018-06-02T19:29:13.402Z,66.30
2018-06-02T19:31:41.749Z,66.72
2018-06-02T19:34:10.363Z,67.43
2018-06-02T19:36:38.710Z,67.06
2018-06-02T19:39:07.053Z,66.62
2018-06-02T19:41:36.195Z,66.18
2018-06-02T19:44:04.529Z,66.28
2018-06-02T19:46:32.872Z,66.69
2018-06-02T19:49:01.245Z,66.19
2018-06-02T19:51:29.606Z,66.32
2018-06-02T19:53:57.946Z,66.70
2018-06-02T19:56:27.134Z,67.15
2018-06-02T19:58:55.488Z,67.72
2018-06-02T20:01:23.865Z,67.42
2018-06-02T20:03:52.273Z,67.49
2018-06-02T20:06:56.871Z,68.77
2018-06-02T20:09:26.380Z,68.35
2018-06-02T20:11:55.711Z,68.67
2018-06-02T20:14:25.035Z,68.52
2018-06-02T20:16:54.461Z,68.83
2018-06-02T20:19:23.816Z,68.46
2018-06-02T20:21:53.112Z,68.94
2018-06-02T20:24:22.455Z,69.00
2018-06-02T20:26:51.782Z,69.46
2018-06-02T20:29:21.301Z,68.88
2018-06-02T20:31:50.809Z,69.33
2018-06-02T20:34:20.117Z,69.84
2018-06-02T20:36:49.467Z,68.80
2018-06-02T20:39:19.039Z,68.16
2018-06-02T20:41:48.370Z,69.11
2018-06-02T20:44:17.738Z,68.12
2018-06-02T20:46:47.126Z,68.43
2018-06-02T20:49:16.528Z,68.74
2018-06-02T20:51:45.876Z,68.56
2018-06-02T20:54:15.263Z,68.71
2018-06-02T20:56:44.760Z,69.06
2018-06-02T20:59:14.130Z,68.46
2018-06-02T21:01:43.746Z,69.12
2018-06-02T21:04:13.301Z,68.91
2018-06-02T21:06:42.597Z,69.77
2018-06-02T21:09:12.049Z,69.04
2018-06-02T21:11:41.530Z,69.41
2018-06-02T21:14:10.961Z,69.78
2018-06-02T21:16:40.362Z,68.62
2018-06-02T21:19:09.804Z,68.81
2018-06-02T21:21:39.430Z,68.92
2018-06-02T21:24:08.928Z,68.87
2018-06-02T21:26:38.393Z,69.05
2018-06-02T21:29:07.844Z,68.84
2018-06-02T21:31:37.185Z,68.43
2018-06-02T21:34:06.669Z,67.94
2018-06-02T21:36:36.022Z,68.45
2018-06-02T21:39:06.861Z,68.02
2018-06-02T21:41:36.228Z,68.89
2018-06-02T21:44:05.559Z,68.74
2018-06-02T21:46:35.177Z,69.73
2018-06-02T21:49:04.474Z,68.63
2018-06-02T21:51:33.772Z,68.78
2018-06-02T21:54:03.095Z,69.56
2018-06-02T21:56:32.146Z,69.37
2018-06-02T21:59:01.442Z,69.16
2018-06-02T22:01:30.777Z,68.52
2018-06-02T22:04:00.206Z,69.05
2018-06-02T22:06:29.515Z,69.30
2018-06-02T22:08:59.424Z,68.70
2018-06-02T22:11:28.822Z,69.38
2018-06-02T22:13:58.219Z,69.76
2018-06-02T22:16:27.604Z,69.01
2018-06-02T22:18:56.957Z,68.52
2018-06-02T22:21:26.364Z,68.87
2018-06-02T22:23:55.723Z,69.40
2018-06-02T22:26:25.072Z,68.91
2018-06-02T22:28:54.400Z,70.28
2018-06-02T22:31:23.944Z,69.71
2018-06-02T22:33:53.301Z,69.71
2018-06-02T22:36:22.598Z,69.17
2018-06-02T22:38:51.936Z,69.93
2018-06-02T22:41:21.296Z,69.20
2018-06-02T22:43:50.607Z,69.76
2018-06-02T22:46:20.231Z,70.24
2018-06-02T22:48:49.572Z,70.60
2018-06-02T22:51:33.557Z,70.26
2018-06-02T22:54:02.992Z,71.05
2018-06-02T22:56:32.076Z,70.54
2018-06-02T22:59:01.476Z,70.77
2018-06-02T23:01:30.883Z,70.29
2018-06-02T23:04:00.328Z,70.99
2018-06-02T23:06:29.690Z,71.11
2018-06-02T23:08:59.059Z,70.91
2018-06-02T23:11:28.374Z,71.39
2018-06-02T23:13:58.036Z,71.89
2018-06-02T23:16:27.315Z,71.96
2018-06-02T23:18:56.605Z,72.27
2018-06-02T23:21:25.968Z,72.22
2018-06-02T23:23:55.269Z,72.97
2018-06-02T23:26:24.590Z,72.58
2018-06-02T23:28:53.908Z,73.08
2018-06-02T23:31:23.171Z,73.20
2018-06-02T23:33:52.483Z,73.57
2018-06-02T23:36:21.874Z,73.17
2018-06-02T23:38:51.207Z,73.25
2018-06-02T23:41:20.512Z,73.08
2018-06-02T23:43:49.843Z,73.06
2018-06-02T23:46:19.136Z,72.92
2018-06-02T23:48:48.403Z,72.13
2018-06-02T23:51:17.689Z,73.55
2018-06-02T23:53:46.967Z,72.58
2018-06-02T23:56:16.519Z,73.23
2018-06-02T23:58:46.070Z,72.79
